Terminal Aerodrome Forecast
Issued by NWS North Platte, NE

Home | Current Version | Previous Version | Text Only | Print | Product List | Glossary On
Versions: 1 2 3 4 5 6 7 8 9 10 11 12 13 14 15 16 17 18 19 20
000
FTUS43 KLBF 241000 AAA
TAFVTN
TAF AMD
KVTN 241009Z 2410/2506 18012KT P6SM BKN150
     FM241800 19012KT P6SM BKN200
     FM242200 15009KT P6SM BKN050 PROB30 2500/2506 5SM -TSRA
      BKN030CB=

USA.gov is the U.S. government's official web portal to all federal, state and local government web resources and services.